Time;durP1;ratioP1;P1;durP2;ratioP2;P2;SDS_P1;SDS_P2;PMS_P1;PMS_P2;Temp;Humidity;BMP_temperature;BMP_pressure;BME280_temperature;BME280_humidity;BME280_pressure;Samples;Min_cycle;Max_cycle;Signal;HPM_P1;HPM_P2
2024/01/04 00:03:04;;;;;;;7.10;4.10;;;;;;;7.67;100.00;98239.52;105747;1260;101149;-80
2024/01/04 00:05:50;;;;;;;5.20;3.70;;;;;;;7.68;100.00;98235.88;105588;1257;99099;-79
2024/01/04 00:08:36;;;;;;;8.20;5.00;;;;;;;7.67;100.00;98237.15;105594;1255;99114;-79
2024/01/04 00:11:22;;;;;;;7.80;4.40;;;;;;;7.67;100.00;98239.48;105718;1261;97860;-79
2024/01/04 00:14:08;;;;;;;11.60;4.90;;;;;;;7.67;100.00;98238.42;105616;1261;102665;-79
2024/01/04 00:16:54;;;;;;;8.40;4.70;;;;;;;7.68;100.00;98236.00;105707;1260;99147;-79
2024/01/04 00:19:40;;;;;;;8.50;4.80;;;;;;;7.68;100.00;98238.36;105766;1258;99030;-78
2024/01/04 00:22:25;;;;;;;10.60;4.60;;;;;;;7.68;100.00;98243.73;105645;1257;98045;-79
2024/01/04 00:25:10;;;;;;;7.20;4.30;;;;;;;7.69;100.00;98244.21;105730;1263;98410;-78
2024/01/04 00:27:56;;;;;;;8.20;4.40;;;;;;;7.70;100.00;98249.08;105764;1260;102099;-78
2024/01/04 00:30:42;;;;;;;9.30;4.40;;;;;;;7.70;100.00;98248.14;105721;1257;99252;-82
2024/01/04 00:33:28;;;;;;;8.80;4.30;;;;;;;7.70;100.00;98245.92;106574;1257;99008;-82
2024/01/04 00:36:14;;;;;;;8.50;4.60;;;;;;;7.70;100.00;98250.06;106020;1260;98028;-82
2024/01/04 00:38:59;;;;;;;10.20;4.80;;;;;;;7.70;100.00;98253.30;106872;1257;98373;-81
2024/01/04 00:41:46;;;;;;;8.50;4.20;;;;;;;7.71;100.00;98252.87;106478;1257;101349;-79
2024/01/04 00:44:31;;;;;;;8.50;4.30;;;;;;;7.73;100.00;98248.60;105873;1260;99253;-79
2024/01/04 00:47:17;;;;;;;8.50;5.00;;;;;;;7.74;100.00;98246.48;106092;1257;99118;-80
2024/01/04 00:50:03;;;;;;;8.20;4.70;;;;;;;7.75;100.00;98247.58;105691;1263;97980;-80
2024/01/04 00:52:48;;;;;;;7.20;4.60;;;;;;;7.76;100.00;98247.49;106070;1257;98445;-79
2024/01/04 00:55:34;;;;;;;13.20;5.50;;;;;;;7.77;100.00;98243.91;105870;1258;101356;-80
2024/01/04 00:58:20;;;;;;;10.80;6.30;;;;;;;7.78;100.00;98243.39;106035;1260;100440;-80
2024/01/04 01:01:05;;;;;;;9.20;5.30;;;;;;;7.78;100.00;98242.61;105911;1261;99247;-79
2024/01/04 01:03:53;;;;;;;11.20;6.30;;;;;;;7.79;100.00;98242.24;106081;1257;97996;-80
2024/01/04 01:06:39;;;;;;;10.20;7.10;;;;;;;7.80;100.00;98236.95;106100;1260;97925;-80
2024/01/04 01:09:25;;;;;;;7.80;5.00;;;;;;;7.80;100.00;98239.84;105999;1260;102228;-79
2024/01/04 01:12:10;;;;;;;7.70;4.10;;;;;;;7.81;100.00;98238.11;105892;1260;99085;-80
2024/01/04 01:14:56;;;;;;;11.10;5.50;;;;;;;7.81;100.00;98235.69;105654;1257;99096;-79
2024/01/04 01:17:41;;;;;;;7.90;3.70;;;;;;;7.82;100.00;98235.67;105782;1260;97973;-79
2024/01/04 01:20:27;;;;;;;8.10;4.00;;;;;;;7.82;100.00;98237.65;105792;1261;98438;-79
2024/01/04 01:23:13;;;;;;;9.00;3.80;;;;;;;7.82;100.00;98236.51;105784;1260;101431;-79
2024/01/04 01:25:58;;;;;;;9.80;4.30;;;;;;;7.82;100.00;98238.55;105882;1257;99163;-79
2024/01/04 01:28:44;;;;;;;12.20;5.10;;;;;;;7.83;100.00;98242.88;105737;1260;99041;-80
2024/01/04 01:31:29;;;;;;;7.30;3.90;;;;;;;7.83;100.00;98248.70;105811;1260;97959;-79
2024/01/04 01:34:15;;;;;;;9.30;4.20;;;;;;;7.84;100.00;98251.65;105787;1257;97993;-79
2024/01/04 01:37:01;;;;;;;9.00;4.20;;;;;;;7.85;100.00;98248.48;105716;1260;101391;-79
2024/01/04 01:39:46;;;;;;;7.40;4.10;;;;;;;7.84;100.00;98250.74;105685;1260;99168;-79
2024/01/04 01:42:32;;;;;;;9.40;5.00;;;;;;;7.83;100.00;98252.38;105835;1260;98108;-80
2024/01/04 01:45:17;;;;;;;7.60;4.30;;;;;;;7.83;100.00;98250.71;105746;1257;99330;-82
2024/01/04 01:48:05;;;;;;;8.70;4.30;;;;;;;7.82;100.00;98250.65;105782;1256;97958;-79
2024/01/04 01:50:50;;;;;;;9.20;3.30;;;;;;;7.80;100.00;98251.12;105816;1259;101412;-80
2024/01/04 01:53:37;;;;;;;10.30;4.20;;;;;;;7.78;100.00;98250.98;106152;1255;99134;-79
2024/01/04 01:56:23;;;;;;;8.40;3.90;;;;;;;7.78;100.00;98248.27;105673;1258;97888;-80
2024/01/04 01:59:08;;;;;;;8.30;4.20;;;;;;;7.78;100.00;98245.89;106314;1257;97967;-79
2024/01/04 02:01:54;;;;;;;6.70;3.60;;;;;;;7.75;100.00;98244.83;105752;1257;98519;-79
2024/01/04 02:04:40;;;;;;;7.40;3.60;;;;;;;7.74;100.00;98242.18;105820;1258;101422;-80
2024/01/04 02:07:25;;;;;;;5.10;3.00;;;;;;;7.74;100.00;98239.30;105897;1257;99420;-79
2024/01/04 02:10:12;;;;;;;7.70;4.20;;;;;;;7.74;100.00;98243.46;105612;1257;98990;-79
2024/01/04 02:12:58;;;;;;;5.70;3.20;;;;;;;7.74;100.00;98244.73;105738;1256;97957;-80
2024/01/04 02:15:43;;;;;;;7.60;3.70;;;;;;;7.74;100.00;98246.33;105963;1257;98412;-80
2024/01/04 02:18:29;;;;;;;5.90;3.80;;;;;;;7.73;100.00;98245.71;106462;1260;101990;-80
2024/01/04 02:21:15;;;;;;;8.00;4.10;;;;;;;7.72;100.00;98241.42;106035;1257;100095;-80
2024/01/04 02:24:01;;;;;;;7.30;3.80;;;;;;;7.71;100.00;98238.04;106210;1258;99209;-80
2024/01/04 02:26:46;;;;;;;6.80;3.40;;;;;;;7.70;100.00;98237.15;105847;1260;98510;-80
2024/01/04 02:29:31;;;;;;;5.70;3.70;;;;;;;7.70;100.00;98232.52;105811;1260;97833;-79
2024/01/04 02:32:17;;;;;;;6.30;3.70;;;;;;;7.70;100.00;98230.67;106013;1257;102305;-80
2024/01/04 02:35:04;;;;;;;7.40;3.60;;;;;;;7.71;100.00;98229.92;106589;1257;99143;-81
2024/01/04 02:37:51;;;;;;;6.80;3.50;;;;;;;7.69;100.00;98232.86;106515;1256;98817;-81
2024/01/04 02:40:36;;;;;;;5.50;3.80;;;;;;;7.68;100.00;98231.94;106391;1260;97984;-81
2024/01/04 02:43:22;;;;;;;8.20;4.60;;;;;;;7.68;100.00;98225.38;106358;1258;97750;-80
2024/01/04 02:46:07;;;;;;;7.10;3.70;;;;;;;7.69;100.00;98220.61;106467;1258;101373;-81
2024/01/04 02:48:53;;;;;;;6.10;3.70;;;;;;;7.69;100.00;98222.69;106438;1257;99061;-81
2024/01/04 02:51:38;;;;;;;8.70;3.90;;;;;;;7.68;100.00;98221.56;106470;1260;97838;-81
2024/01/04 02:54:25;;;;;;;5.10;3.30;;;;;;;7.69;100.00;98221.80;106414;1257;97948;-81
2024/01/04 02:57:11;;;;;;;6.10;3.50;;;;;;;7.68;100.00;98221.23;106607;1260;97895;-80
2024/01/04 02:59:57;;;;;;;5.50;3.50;;;;;;;7.69;100.00;98218.64;106454;1257;101342;-80
2024/01/04 03:02:42;;;;;;;6.70;3.60;;;;;;;7.70;100.00;98220.67;106526;1257;100389;-80
2024/01/04 03:05:28;;;;;;;7.80;2.90;;;;;;;7.70;100.00;98219.57;106498;1258;98947;-81
2024/01/04 03:08:14;;;;;;;6.70;3.50;;;;;;;7.70;100.00;98218.79;106349;1264;97939;-80
2024/01/04 03:10:59;;;;;;;7.70;3.70;;;;;;;7.70;100.00;98217.92;106511;1257;98487;-81
2024/01/04 03:13:48;;;;;;;5.70;2.90;;;;;;;7.70;100.00;98221.65;106535;1260;102265;-79
2024/01/04 03:16:33;;;;;;;3.30;2.40;;;;;;;7.70;100.00;98224.31;106413;1256;100344;-79
2024/01/04 03:19:19;;;;;;;4.80;2.90;;;;;;;7.68;100.00;98222.09;105995;1260;98714;-80
2024/01/04 03:22:05;;;;;;;4.10;2.80;;;;;;;7.66;100.00;98223.52;105996;1260;97939;-80
2024/01/04 03:24:50;;;;;;;6.50;3.20;;;;;;;7.65;100.00;98220.30;106154;1261;97865;-80
2024/01/04 03:27:36;;;;;;;5.60;3.20;;;;;;;7.64;100.00;98221.02;106084;1256;101327;-80
2024/01/04 03:30:21;;;;;;;5.70;3.00;;;;;;;7.63;100.00;98215.57;106303;1257;166628;-80
2024/01/04 03:33:07;;;;;;;5.50;2.90;;;;;;;7.62;100.00;98216.65;106427;1258;98854;-80
2024/01/04 03:35:53;;;;;;;6.70;3.50;;;;;;;7.61;100.00;98217.40;105873;1257;99269;-80
2024/01/04 03:38:38;;;;;;;4.90;3.30;;;;;;;7.60;100.00;98210.52;106148;1260;98472;-80
2024/01/04 03:41:24;;;;;;;4.60;2.90;;;;;;;7.61;100.00;98210.02;106000;1258;102663;-79
2024/01/04 03:44:09;;;;;;;5.50;3.30;;;;;;;7.62;100.00;98209.06;105842;1260;100389;-79
2024/01/04 03:46:55;;;;;;;5.50;3.30;;;;;;;7.62;100.00;98206.56;105765;1260;98609;-80
2024/01/04 03:49:40;;;;;;;7.80;3.10;;;;;;;7.62;100.00;98205.82;105753;1258;97891;-79
2024/01/04 03:52:25;;;;;;;7.30;3.50;;;;;;;7.62;100.00;98204.48;105678;1258;97918;-80
2024/01/04 03:55:11;;;;;;;5.10;2.80;;;;;;;7.59;100.00;98205.54;105762;1257;102652;-79
2024/01/04 03:57:57;;;;;;;6.50;3.10;;;;;;;7.57;100.00;98202.29;105875;1257;99258;-79
2024/01/04 04:00:42;;;;;;;7.70;3.00;;;;;;;7.57;100.00;98200.63;105826;1257;98443;-79
2024/01/04 04:03:28;;;;;;;5.20;2.90;;;;;;;7.55;100.00;98201.52;106357;1257;97968;-80
2024/01/04 04:06:13;;;;;;;7.40;3.80;;;;;;;7.54;100.00;98198.84;105825;1257;97983;-79
2024/01/04 04:08:59;;;;;;;7.30;3.80;;;;;;;7.52;100.00;98198.73;105748;1258;101393;-80
2024/01/04 04:11:47;;;;;;;9.00;3.30;;;;;;;7.51;100.00;98194.50;105787;1260;100204;-80
2024/01/04 04:14:34;;;;;;;9.50;4.90;;;;;;;7.49;100.00;98190.84;105774;1258;97898;-80
2024/01/04 04:17:24;;;;;;;7.30;3.80;;;;;;;7.49;100.00;98190.64;105727;1258;98605;-79
2024/01/04 04:20:10;;;;;;;5.00;3.40;;;;;;;7.48;100.00;98191.11;105836;1257;97981;-80
2024/01/04 04:22:56;;;;;;;5.70;4.10;;;;;;;7.49;100.00;98188.27;105751;1258;101387;-80
2024/01/04 04:25:42;;;;;;;7.10;3.70;;;;;;;7.51;100.00;98188.15;105834;1256;107579;-79
2024/01/04 04:28:28;;;;;;;5.80;3.70;;;;;;;7.51;100.00;98190.81;105816;1258;97913;-79
2024/01/04 04:31:17;;;;;;;7.20;3.30;;;;;;;7.49;100.00;98193.16;105742;1255;97984;-79
2024/01/04 04:34:03;;;;;;;6.00;3.80;;;;;;;7.49;100.00;98188.14;105711;1257;97749;-79
2024/01/04 04:36:48;;;;;;;6.10;4.10;;;;;;;7.49;100.00;98186.98;105757;1257;101504;-80
2024/01/04 04:39:34;;;;;;;6.20;4.10;;;;;;;7.49;100.00;98185.11;105777;1256;99071;-80
2024/01/04 04:42:19;;;;;;;7.90;4.90;;;;;;;7.48;100.00;98186.15;105650;1261;98360;-80
2024/01/04 04:45:05;;;;;;;7.20;4.30;;;;;;;7.46;100.00;98187.23;105991;1260;98051;-81
2024/01/04 04:47:51;;;;;;;9.00;4.40;;;;;;;7.46;100.00;98188.39;106293;1258;98872;-80
2024/01/04 04:50:36;;;;;;;6.60;3.90;;;;;;;7.47;100.00;98187.88;105957;1260;102199;-80
2024/01/04 04:53:22;;;;;;;7.50;4.30;;;;;;;7.47;100.00;98188.03;106523;1256;99129;-81
2024/01/04 04:56:08;;;;;;;6.90;4.10;;;;;;;7.48;100.00;98185.40;106496;1257;99006;-81
2024/01/04 04:58:54;;;;;;;5.50;3.80;;;;;;;7.48;100.00;98190.58;106577;1257;98153;-81
2024/01/04 05:01:44;;;;;;;5.90;4.00;;;;;;;7.47;100.00;98193.70;105968;1255;98045;-80
2024/01/04 05:04:30;;;;;;;6.20;4.00;;;;;;;7.46;100.00;98195.42;105745;1256;101325;-79
2024/01/04 05:07:15;;;;;;;7.70;4.10;;;;;;;7.47;100.00;98199.39;106508;1257;99111;-80
2024/01/04 05:10:01;;;;;;;6.00;3.80;;;;;;;7.48;100.00;98199.38;105924;1258;97864;-79
2024/01/04 05:12:46;;;;;;;10.10;4.00;;;;;;;7.49;100.00;98203.75;105806;1261;97984;-80
2024/01/04 05:15:32;;;;;;;6.10;4.20;;;;;;;7.47;100.00;98203.77;105829;1258;98518;-78
2024/01/04 05:18:18;;;;;;;6.60;4.20;;;;;;;7.47;100.00;98206.14;105764;1261;102082;-79
2024/01/04 05:21:04;;;;;;;8.10;4.10;;;;;;;7.46;100.00;98205.13;106176;1260;100719;-79
2024/01/04 05:23:49;;;;;;;8.20;4.00;;;;;;;7.47;100.00;98205.45;106001;1260;98358;-79
2024/01/04 05:26:35;;;;;;;7.80;4.10;;;;;;;7.46;100.00;98207.27;105957;1257;97897;-80
2024/01/04 05:29:20;;;;;;;7.60;4.40;;;;;;;7.48;100.00;98208.15;105855;1261;98500;-80
2024/01/04 05:32:06;;;;;;;6.70;4.60;;;;;;;7.47;100.00;98209.10;106425;1257;101348;-80
2024/01/04 05:34:52;;;;;;;7.50;4.10;;;;;;;7.48;100.00;98211.79;106379;1257;100447;-79
2024/01/04 05:37:38;;;;;;;6.40;4.10;;;;;;;7.47;100.00;98211.11;105743;1260;98816;-79
2024/01/04 05:40:23;;;;;;;6.10;4.40;;;;;;;7.48;100.00;98211.50;106463;1257;97867;-79
2024/01/04 05:43:09;;;;;;;5.00;3.40;;;;;;;7.46;100.00;98214.19;106395;1258;98727;-79
2024/01/04 05:45:54;;;;;;;7.80;4.00;;;;;;;7.44;100.00;98217.74;106546;1257;101411;-80
2024/01/04 05:48:40;;;;;;;6.80;4.00;;;;;;;7.43;100.00;98215.55;106123;1260;100369;-79
2024/01/04 05:51:26;;;;;;;11.60;4.20;;;;;;;7.42;100.00;98217.27;106018;1256;97892;-81
2024/01/04 05:54:11;;;;;;;4.80;3.40;;;;;;;7.40;100.00;98218.54;105867;1257;98077;-80
2024/01/04 05:56:57;;;;;;;8.50;3.90;;;;;;;7.39;100.00;98217.86;105813;1260;98010;-78
2024/01/04 05:59:42;;;;;;;12.70;5.10;;;;;;;7.37;100.00;98220.65;105815;1256;101436;-81
2024/01/04 06:02:27;;;;;;;9.60;5.00;;;;;;;7.37;100.00;98221.69;106244;1258;100141;-80
2024/01/04 06:05:13;;;;;;;9.20;5.00;;;;;;;7.36;100.00;98222.68;105958;1258;98065;-80
2024/01/04 06:07:59;;;;;;;6.90;3.80;;;;;;;7.36;100.00;98222.84;106009;1261;98048;-80
2024/01/04 06:10:45;;;;;;;8.70;4.20;;;;;;;7.34;100.00;98221.84;105960;1260;98484;-80
2024/01/04 06:13:31;;;;;;;7.70;4.70;;;;;;;7.33;100.00;98220.95;106235;1257;102621;-80
2024/01/04 06:16:17;;;;;;;6.50;4.00;;;;;;;7.34;100.00;98224.70;106513;1257;100141;-80
2024/01/04 06:19:03;;;;;;;9.00;4.30;;;;;;;7.34;100.00;98224.25;106622;1257;97877;-80
2024/01/04 06:21:49;;;;;;;7.10;4.10;;;;;;;7.33;100.00;98225.27;106539;1256;98046;-79
2024/01/04 06:24:34;;;;;;;9.00;4.70;;;;;;;7.34;100.00;98231.52;106577;1260;98860;-80
2024/01/04 06:27:20;;;;;;;8.60;3.80;;;;;;;7.33;100.00;98232.89;106420;1257;101427;-80
2024/01/04 06:30:06;;;;;;;7.90;4.20;;;;;;;7.33;100.00;98234.04;105785;1260;99224;-79
2024/01/04 06:32:52;;;;;;;8.00;4.60;;;;;;;7.34;100.00;98239.35;105700;1257;99042;-79
2024/01/04 06:35:38;;;;;;;6.90;4.40;;;;;;;7.34;100.00;98236.27;105688;1256;97995;-79
2024/01/04 06:38:23;;;;;;;6.80;4.50;;;;;;;7.35;100.00;98235.27;105589;1262;98070;-79
2024/01/04 06:41:10;;;;;;;7.60;4.40;;;;;;;7.38;100.00;98233.76;105836;1259;101360;-79
2024/01/04 06:43:56;;;;;;;6.20;3.60;;;;;;;7.39;100.00;98237.64;105676;1257;100447;-79
2024/01/04 06:46:42;;;;;;;6.60;4.60;;;;;;;7.40;100.00;98236.90;105582;1258;98926;-79
2024/01/04 06:49:27;;;;;;;6.90;4.80;;;;;;;7.40;100.00;98240.95;105527;1257;97922;-79
2024/01/04 06:52:13;;;;;;;9.10;4.90;;;;;;;7.40;100.00;98236.86;105608;1264;98051;-80
2024/01/04 06:54:58;;;;;;;9.10;4.60;;;;;;;7.41;100.00;98241.14;105696;1261;101318;-79
2024/01/04 06:57:44;;;;;;;8.00;4.60;;;;;;;7.41;100.00;98240.72;105695;1260;99079;-78
2024/01/04 07:00:30;;;;;;;10.20;4.50;;;;;;;7.41;100.00;98239.25;105754;1255;98070;-79
2024/01/04 07:03:19;;;;;;;8.60;5.10;;;;;;;7.42;100.00;98240.84;105655;1262;97972;-80
2024/01/04 07:06:06;;;;;;;7.50;4.20;;;;;;;7.41;100.00;98240.36;105778;1258;98488;-80
2024/01/04 07:08:52;;;;;;;7.10;3.90;;;;;;;7.41;100.00;98240.73;106028;1255;101384;-80
2024/01/04 07:11:37;;;;;;;7.30;3.80;;;;;;;7.41;100.00;98238.64;106075;1261;100335;-81
2024/01/04 07:14:22;;;;;;;5.80;4.30;;;;;;;7.42;100.00;98238.13;106189;1257;99105;-80
2024/01/04 07:17:08;;;;;;;9.40;4.70;;;;;;;7.42;100.00;98237.08;106063;1261;99232;-78
2024/01/04 07:19:54;;;;;;;9.20;4.30;;;;;;;7.42;100.00;98237.72;106301;1260;97950;-80
2024/01/04 07:22:40;;;;;;;7.10;4.20;;;;;;;7.44;100.00;98239.30;106614;1257;102332;-79
2024/01/04 07:25:25;;;;;;;10.00;4.90;;;;;;;7.44;100.00;98241.67;106632;1259;99166;-79
2024/01/04 07:28:11;;;;;;;9.40;5.20;;;;;;;7.45;100.00;98242.86;106121;1261;99010;-79
2024/01/04 07:30:57;;;;;;;8.20;5.70;;;;;;;7.47;100.00;98235.36;106163;1258;99166;-80
2024/01/04 07:33:43;;;;;;;7.60;5.40;;;;;;;7.48;100.00;98237.73;106484;1260;98590;-81
2024/01/04 07:36:29;;;;;;;8.30;6.00;;;;;;;7.48;100.00;98238.27;106020;1257;101369;-80
2024/01/04 07:39:15;;;;;;;8.20;5.70;;;;;;;7.47;100.00;98239.30;105852;1262;99799;-80
2024/01/04 07:42:00;;;;;;;9.50;5.80;;;;;;;7.48;100.00;98237.03;106004;1258;97993;-80
2024/01/04 07:44:46;;;;;;;8.50;5.70;;;;;;;7.49;100.00;98238.09;106076;1261;97893;-81
2024/01/04 07:47:31;;;;;;;11.90;6.70;;;;;;;7.50;100.00;98238.11;106055;1258;98052;-80
2024/01/04 07:50:17;;;;;;;10.10;6.10;;;;;;;7.51;100.00;98239.41;106732;1257;102585;-80
2024/01/04 07:53:02;;;;;;;9.50;6.00;;;;;;;7.52;100.00;98240.23;106470;1261;99147;-80
2024/01/04 07:55:48;;;;;;;13.80;6.40;;;;;;;7.53;100.00;98243.73;106134;1259;99472;-80
2024/01/04 07:58:34;;;;;;;8.50;5.30;;;;;;;7.54;100.00;98244.30;106034;1257;98062;-80
2024/01/04 08:01:19;;;;;;;9.50;5.90;;;;;;;7.56;100.00;98244.71;105911;1263;98402;-80
2024/01/04 08:04:05;;;;;;;9.40;5.80;;;;;;;7.57;100.00;98244.55;106072;1257;102903;-80
2024/01/04 08:06:50;;;;;;;8.90;6.60;;;;;;;7.60;100.00;98241.64;106460;1257;99256;-80
2024/01/04 08:09:37;;;;;;;11.30;8.60;;;;;;;7.64;100.00;98238.80;106519;1258;97742;-81
2024/01/04 08:12:22;;;;;;;8.20;5.80;;;;;;;7.68;100.00;98237.48;106438;1258;97952;-82
2024/01/04 08:15:09;;;;;;;8.70;6.00;;;;;;;7.71;100.00;98236.98;106660;1257;97899;-80
2024/01/04 08:17:54;;;;;;;7.20;5.90;;;;;;;7.74;100.00;98238.02;106334;1261;102612;-80
2024/01/04 08:20:40;;;;;;;9.20;5.80;;;;;;;7.75;100.00;98238.69;105649;1261;101095;-79
2024/01/04 08:23:25;;;;;;;8.10;6.60;;;;;;;7.76;100.00;98235.02;105695;1261;97958;-80
2024/01/04 08:26:11;;;;;;;8.20;5.90;;;;;;;7.77;100.00;98236.65;105816;1259;97972;-79
2024/01/04 08:28:56;;;;;;;10.20;5.90;;;;;;;7.77;100.00;98235.38;106067;1256;97838;-79
2024/01/04 08:31:42;;;;;;;8.10;5.50;;;;;;;7.77;100.00;98240.54;106134;1258;101919;-80
2024/01/04 08:34:28;;;;;;;8.80;6.20;;;;;;;7.76;100.00;98242.45;105777;1258;100465;-79
2024/01/04 08:37:14;;;;;;;9.20;5.90;;;;;;;7.76;100.00;98244.90;105751;1257;98056;-80
2024/01/04 08:40:00;;;;;;;10.00;6.20;;;;;;;7.77;100.00;98244.39;105785;1261;97975;-80
2024/01/04 08:42:46;;;;;;;7.40;6.10;;;;;;;7.78;100.00;98248.03;105800;1260;97956;-80
2024/01/04 08:45:32;;;;;;;6.50;5.50;;;;;;;7.78;100.00;98251.30;105612;1256;101535;-79
2024/01/04 08:48:17;;;;;;;6.30;5.60;;;;;;;7.80;100.00;98252.52;105704;1257;99142;-80
2024/01/04 08:51:03;;;;;;;10.10;6.40;;;;;;;7.80;100.00;98251.04;105715;1259;97971;-80
2024/01/04 08:53:49;;;;;;;8.30;5.70;;;;;;;7.79;100.00;98248.67;105787;1256;98832;-79
2024/01/04 08:56:36;;;;;;;6.50;5.60;;;;;;;7.78;100.00;98253.48;105630;1256;99141;-80
2024/01/04 08:59:22;;;;;;;7.70;6.20;;;;;;;7.78;100.00;98257.74;105807;1260;102136;-79
2024/01/04 09:02:09;;;;;;;10.20;5.70;;;;;;;7.79;100.00;98258.69;106132;1261;100146;-79
2024/01/04 09:04:54;;;;;;;8.80;5.40;;;;;;;7.81;100.00;98262.84;106267;1258;97889;-78
2024/01/04 09:07:40;;;;;;;7.20;5.20;;;;;;;7.82;100.00;98262.79;106335;1263;97971;-79
2024/01/04 09:10:25;;;;;;;7.10;5.30;;;;;;;7.82;100.00;98266.59;105820;1261;98472;-80
2024/01/04 09:13:11;;;;;;;7.30;5.20;;;;;;;7.83;100.00;98271.67;105749;1261;103235;-79
2024/01/04 09:15:58;;;;;;;8.30;5.50;;;;;;;7.83;100.00;98270.40;105883;1261;99133;-79
2024/01/04 09:18:43;;;;;;;9.00;5.80;;;;;;;7.83;100.00;98273.59;105812;1255;97995;-78
2024/01/04 09:21:29;;;;;;;9.80;6.10;;;;;;;7.83;100.00;98276.41;105636;1261;97888;-79
2024/01/04 09:24:15;;;;;;;8.90;6.00;;;;;;;7.84;100.00;98275.55;105895;1257;98503;-79
2024/01/04 09:27:02;;;;;;;7.60;5.30;;;;;;;7.86;100.00;98275.36;106741;1258;101382;-80
2024/01/04 09:29:48;;;;;;;6.60;5.30;;;;;;;7.87;100.00;98276.45;106481;1257;99081;-81
2024/01/04 09:32:34;;;;;;;8.30;5.30;;;;;;;7.88;100.00;98273.68;106756;1255;98780;-79
2024/01/04 09:35:22;;;;;;;7.30;4.60;;;;;;;7.90;100.00;98273.29;106392;1255;97882;-80
2024/01/04 09:38:08;;;;;;;8.20;5.10;;;;;;;7.92;100.00;98270.19;105809;1259;98484;-80
2024/01/04 09:41:04;;;;;;;8.20;5.70;;;;;;;7.94;100.00;98275.16;105820;1260;102274;-79
2024/01/04 09:43:54;;;;;;;14.00;9.30;;;;;;;7.95;100.00;98273.55;105753;1260;99137;-79
2024/01/04 09:46:41;;;;;;;16.30;10.00;;;;;;;7.95;100.00;98274.27;105695;1261;98617;-79
2024/01/04 09:49:29;;;;;;;16.70;12.00;;;;;;;7.95;100.00;98276.47;105768;1261;98024;-80
2024/01/04 09:52:15;;;;;;;11.40;8.10;;;;;;;7.95;100.00;98271.25;105785;1261;98545;-78
2024/01/04 09:55:03;;;;;;;7.70;6.50;;;;;;;7.97;100.00;98271.36;105821;1257;102125;-79
2024/01/04 09:57:49;;;;;;;13.10;10.70;;;;;;;7.99;100.00;98271.09;106213;1259;99062;-80
2024/01/04 10:00:34;;;;;;;9.80;8.80;;;;;;;8.01;100.00;98269.92;106537;1261;98059;-80
2024/01/04 10:03:20;;;;;;;13.80;12.40;;;;;;;8.03;100.00;98272.90;106504;1259;97754;-80
2024/01/04 10:06:10;;;;;;;17.10;15.30;;;;;;;8.04;100.00;98275.11;105897;1261;98560;-79
2024/01/04 10:09:20;;;;;;;14.80;12.80;;;;;;;8.04;100.00;98279.01;106168;1257;102758;-80
2024/01/04 10:12:11;;;;;;;11.00;9.90;;;;;;;8.05;100.00;98280.16;105879;1259;99102;-79
2024/01/04 10:14:56;;;;;;;16.20;10.80;;;;;;;8.08;100.00;98282.30;105649;1256;99173;-79
2024/01/04 10:17:45;;;;;;;12.70;9.70;;;;;;;8.10;100.00;98277.52;106131;1259;97933;-80
2024/01/04 10:20:33;;;;;;;10.70;9.00;;;;;;;8.14;100.00;98276.75;106140;1260;97902;-81
2024/01/04 10:23:18;;;;;;;12.70;11.40;;;;;;;8.16;100.00;98273.25;106738;1258;101532;-80
2024/01/04 10:26:08;;;;;;;12.20;10.50;;;;;;;8.19;100.00;98273.31;106032;1258;100003;-80
2024/01/04 10:28:55;;;;;;;8.90;8.00;;;;;;;8.20;100.00;98275.81;106454;1257;97857;-80
2024/01/04 10:31:40;;;;;;;11.00;8.40;;;;;;;8.20;100.00;98276.71;105940;1257;97881;-79
2024/01/04 10:34:27;;;;;;;11.10;7.70;;;;;;;8.19;100.00;98281.13;105989;1261;98011;-79
2024/01/04 10:37:22;;;;;;;10.40;8.50;;;;;;;8.18;100.00;98283.06;106583;1257;101451;-81
2024/01/04 10:40:09;;;;;;;11.50;8.60;;;;;;;8.19;100.00;98281.42;106724;1258;99190;-80
2024/01/04 10:42:55;;;;;;;10.30;7.80;;;;;;;8.19;100.00;98283.30;105961;1261;97932;-79
2024/01/04 10:45:41;;;;;;;8.90;7.90;;;;;;;8.20;100.00;98284.80;106065;1260;97971;-80
2024/01/04 10:48:27;;;;;;;25.60;14.70;;;;;;;8.19;100.00;98285.74;105928;1258;99444;-79
2024/01/04 10:51:15;;;;;;;22.60;14.90;;;;;;;8.18;100.00;98284.83;105812;1258;101387;-78
2024/01/04 10:54:01;;;;;;;16.90;14.10;;;;;;;8.19;100.00;98286.45;105776;1264;99819;-79
2024/01/04 10:56:47;;;;;;;17.00;14.80;;;;;;;8.21;100.00;98282.02;105835;1258;98938;-79
2024/01/04 10:59:34;;;;;;;18.20;16.30;;;;;;;8.23;100.00;98279.58;105817;1259;97956;-79
2024/01/04 11:02:21;;;;;;;28.20;17.20;;;;;;;8.26;100.00;98279.98;106338;1261;97814;-79
2024/01/04 11:05:09;;;;;;;61.20;32.10;;;;;;;8.26;100.00;98273.33;106462;1260;101278;-79
2024/01/04 11:07:56;;;;;;;93.40;51.10;;;;;;;8.27;100.00;98267.75;106094;1260;100095;-80
2024/01/04 11:10:44;;;;;;;22.70;14.50;;;;;;;8.29;100.00;98265.20;105869;1257;99043;-80
2024/01/04 11:13:30;;;;;;;11.10;9.20;;;;;;;8.33;100.00;98260.70;105756;1257;97851;-79
2024/01/04 11:16:41;;;;;;;11.40;8.20;;;;;;;8.37;100.00;98254.33;105803;1261;97870;-79
2024/01/04 11:19:35;;;;;;;9.80;7.70;;;;;;;8.37;100.00;98250.06;106469;1261;101367;-79
2024/01/04 11:22:56;;;;;;;9.80;7.20;;;;;;;8.38;100.00;98249.93;105766;1261;100586;-80
2024/01/04 11:26:01;;;;;;;;;;;;;;;8.37;100.00;98249.11;105824;1259;98031;-78
2024/01/04 11:28:48;;;;;;;18.60;12.30;;;;;;;8.35;100.00;98249.19;105963;1257;97971;-79
2024/01/04 11:31:41;;;;;;;13.30;10.00;;;;;;;8.35;100.00;98246.52;105774;1261;98193;-79
2024/01/04 11:34:27;;;;;;;11.90;8.40;;;;;;;8.35;100.00;98249.88;105948;1258;101467;-78
2024/01/04 11:37:18;;;;;;;11.80;7.80;;;;;;;8.36;100.00;98250.97;105536;1259;100360;-79
2024/01/04 11:40:06;;;;;;;11.80;8.80;;;;;;;8.36;100.00;98247.45;106345;1257;98400;-79
2024/01/04 11:42:53;;;;;;;11.50;8.70;;;;;;;8.37;100.00;98248.38;105633;1262;97991;-78
2024/01/04 11:45:42;;;;;;;12.20;8.00;;;;;;;8.37;100.00;98248.33;105764;1261;97984;-79
2024/01/04 11:48:28;;;;;;;8.60;6.80;;;;;;;8.39;100.00;98248.88;105997;1261;102730;-79
2024/01/04 11:51:14;;;;;;;9.40;6.60;;;;;;;8.38;100.00;98247.16;105799;1261;99245;-80
2024/01/04 11:53:59;;;;;;;8.30;6.40;;;;;;;8.36;100.00;98250.31;105790;1256;98968;-79
2024/01/04 11:56:45;;;;;;;8.50;6.50;;;;;;;8.35;100.00;98251.80;105710;1258;97981;-78
2024/01/04 11:59:32;;;;;;;8.80;6.30;;;;;;;8.37;100.00;98254.40;106403;1259;98089;-78
2024/01/04 12:02:21;;;;;;;7.50;6.30;;;;;;;8.39;100.00;98256.47;105683;1261;102268;-79
2024/01/04 12:05:07;;;;;;;9.30;5.70;;;;;;;8.40;100.00;98261.13;105882;1258;99500;-77
2024/01/04 12:07:52;;;;;;;10.50;6.00;;;;;;;8.42;100.00;98258.95;106175;1262;98162;-82
2024/01/04 12:10:39;;;;;;;8.80;5.50;;;;;;;8.46;100.00;98259.47;106305;1258;97960;-81
2024/01/04 12:13:25;;;;;;;7.00;5.70;;;;;;;8.49;100.00;98258.77;106643;1258;98090;-81
2024/01/04 12:16:11;;;;;;;9.80;6.60;;;;;;;8.50;100.00;98258.02;106336;1260;101362;-85
2024/01/04 12:18:58;;;;;;;9.20;6.20;;;;;;;8.49;100.00;98262.16;105952;1257;100271;-83
2024/01/04 12:21:45;;;;;;;8.20;5.90;;;;;;;8.49;100.00;98262.95;105944;1259;98526;-83
2024/01/04 12:24:32;;;;;;;7.20;5.50;;;;;;;8.49;100.00;98263.11;106239;1260;98057;-82
2024/01/04 12:27:18;;;;;;;8.60;4.90;;;;;;;8.50;100.00;98265.23;106840;1261;97891;-81
2024/01/04 12:30:06;;;;;;;7.60;5.00;;;;;;;8.52;100.00;98265.44;106192;1261;101474;-81
2024/01/04 12:32:51;;;;;;;9.10;5.50;;;;;;;8.54;100.00;98268.41;106395;1260;100394;-83
2024/01/04 12:35:38;;;;;;;6.40;5.10;;;;;;;8.53;100.00;98273.09;106288;1261;98976;-85
2024/01/04 12:38:24;;;;;;;8.80;5.40;;;;;;;8.54;100.00;98270.66;106140;1264;97902;-84
2024/01/04 12:41:10;;;;;;;8.30;5.60;;;;;;;8.55;100.00;98273.20;106172;1263;98486;-79
2024/01/04 12:43:56;;;;;;;10.30;5.70;;;;;;;8.55;100.00;98277.67;106336;1256;102549;-80
2024/01/04 12:46:44;;;;;;;11.70;7.30;;;;;;;8.53;100.00;98281.73;105733;1258;100344;-83
2024/01/04 12:49:30;;;;;;;13.60;8.10;;;;;;;8.47;100.00;98278.83;106188;1258;98071;-83
2024/01/04 12:52:16;;;;;;;17.30;9.50;;;;;;;8.40;100.00;98276.89;105992;1258;97943;-83